Statham, GA (30666)

9:07 AM EDT on August 28, 2015 (GMT -0400)
rural | | Change Station
CLOSE
Current Station
Personal Weather Station
Location: Statham, GA
Elevation: 814 ft
Nearby Weather Stations

Elev 814 ft 34.02 °N, 83.57 °W | Updated 18 seconds ago

Overcast
Overcast
70.5 °F
Feels Like 70.5 °F
N
0.0
Wind Variable Wind from SE
Gusts 0.7 mph

Today
High -- | Low -- °F
--% Chance of Precip.
Yesterday
High -- | Low -- °F
Precip. -- in
7:05 AM 8:05 PM
Waxing Gibbous, 98% visible
Pressure 30.19 in
Visibility 5.0 miles
Clouds Overcast 500 ft
Dew Point 68 °F
Humidity 93%
Rainfall 0.00 in
Snow Depth Not available.
UV 1 out of 12
Pollen 8.00 out of 12
Air Quality Not available.
Flu Activity Not available.
METAR KWDR 281255Z AUTO 09004KT 5SM BR OVC005 22/20 A3019 RMK AO1
Pressure 30.19 in
Visibility 5.0 miles
Clouds Overcast 500 ft
Dew Point 68 °F
Humidity 93%
Rainfall 0.00 in
Snow Depth Not available.
UV 1 out of 12
Pollen 8.00 out of 12
Air Quality Not available.
Flu Activity Not available.
METAR KWDR 281255Z AUTO 09004KT 5SM BR OVC005 22/20 A3019 RMK AO1

10-Day Weather Forecast

×

Almanac

Astronomy

Aug. 28, 2015 Rise Set
Actual Time
Civil Twilight
Nautical Twilight
Astronomical Twilight
Moon
Length of Visible Light
Length of Day
Tomorrow will be .
, % of the Moon is Illuminated

Today's Extremes

State Highs State Lows

Community

WunderPhotos

Upload Photos

1,850,375 photos uploaded!

WunderBlogs® & News

Nearby

Air Quality

  Air Quality AQ Index Pollutant
Not available.

Snow Depth

Station Depth Elevation

Earthquake Activity

City Distance Mag. Time & Date
Minimum magnitude displayed is 2.5.

Coastal Water Temperatures

Place Temperature

Stations

Nearby Weather Stations

Station Location Temp. Windchill Dew Point Humidity Wind Precip. Elev Updated Type